الصفحة الرئيسية
METAR-TAF:

METAR-TAF

مطار :

مطار بودابست فرانز ليست الدولي

بودابست, المجر

دائرة عرض: 47-26N, خط طول: 019-16E, ارتفاع: 151 متر

مراقبة الطقس الحالي

تاريخ ووقت الإصدار 11 دقيقة قبل الساعة 02:00UTC
ريح 3 عقدةمن اتجاهات متغيرة
درجة الحرارة 11°درجة مئوية
الرطوبة 87%
ضغط 1019 hPa
الرؤية 10 كم أو أكثر
الغيوم لا تقل 1500 م ولا وجود لمزنة ركامية السحاب الأسود

METAR: LHBP 190200Z VRB03KT CAVOK 11/09 Q1019 NOSIG

زمن: 04:11 (02:11 UTC)

توقعات

تاريخ ووقت الإصدار 2ساعات و 56 دقيقة قبل الساعة 23:15UTC
التوقعات صالحة من19 الساعة 00 UTC إلى 19 الساعة 24 UTC
ريح 3 عقدةمن اتجاهات متغيرة
الرؤية 10 كم أو أكثر
الغيوم لا تقل 1500 م ولا وجود لمزنة ركامية السحاب الأسود
مؤقت
من 19 الساعة 09 UTC إلى 19 الساعة 16 UTC
غيوم قليلة على ارتفاع 5000 قدم, مزن ركامية عمودية.
غيوم مفككة على ارتفاع 10000 قدم
زخات من المطر

TAF: LHBP 182315Z 1900/1924 VRB03KT CAVOK TEMPO 1909/1916 SHRA FEW050TCU BKN100

أرصاد الطقس والتوقعات من أكثر من 4000 مطار (تقارير الطقس للمطار METAR والتنبؤ بالطقس بالمطارTAF).

المحطات المتاحة هي النقط الصفراء والحمراء على الخريطة.

حرك المؤشر فوق النقطة لمعرفة اسم المحطة.

ثم انقر لمعرفة أرصاد وتوقعات الطقس.

لتغيير الخارطة: اضغط على الأزرار الخضراء مع رمز الصليب الأسود للتكبير. على الزر الأخضر مع شرطة للتصغير، أو على الأسهم الخضراء للخرائط المجاورة.


METAR-TAF: